Startpagina
METAR-TAF:

METAR-TAF

Vliegvelden :

Kuala Lumpur, Maleisië

Kuala Lumpur International Airport

breedte: 02-44N, lengte: 101-42E, hoogte: 21 m

Actueel weer

Dit bericht is 20 minuten geleden gemaakt, om 08:30 UTC
Wind 3 kt uit het zuidzuidwesten
Temperatuur 32°C
Vochtigheid 67%
Druk 1007 hPa
Zicht 10 km of meer
Weinig wolken op 1700 ft, Cumulonimbus.
Verspreide wolken op 1800 ft
Gebroken wolken op 28000 ft

METAR: WMKK 280830Z 20003KT 9999 FEW017CB SCT018 BKN280 32/25 Q1007 NOSIG

Tijdstip: 16:50 (08:50 UTC)

Verwachting

Dit bericht is 3 uur en het 50 minuten geleden gemaakt, om 05:00 UTC
Verwachting geldig van 28 om 06 UTC tot 29 om 12 UTC
Wind 5 kt uit het zuidzuidwesten
Zicht 10 km of meer
Weinig wolken op 1700 ft, Cumulonimbus.
Gebroken wolken op 28000 ft
Tijdelijke
van 28 om 19 UTC tot 28 om 23 UTC
Zicht: 5000 m
Weinig wolken op 1500 ft, Cumulonimbus.
Verspreide wolken op 1800 ft
onweer, regen

TAF: WMKK 280500Z 2806/2912 20005KT 9999 FEW017CB BKN280 TEMPO 2819/2823 5000 TSRA FEW015CB SCT018

Waarnemingen en weersverwachtingen van meer dan 4000 vliegvelden (METAR en TAF).

De beschikbare stations zijn de gele en rode punten op de kaart.

Ga met uw muis naar het station om de naam te zien.

Klik dan om waarnemingen en weersverwachtingen te zien.

kaart wijzigen: klik op de groene knoppen met een zwart kruis om in te zoomen, op de groene knop met een streepje om uit te zoomen of op de groene pijlen voor aangrenzende kaarten.


METAR-TAF: